Capitol Logistics 948


EHAM
Schiphol International Airport
Amsterdam, NL
KIAD
Washington Dulles International Airport
Dulles, US

Route Details

Aircraft Information
Primary: Boeing 767-300BDSF
Backup: Not Available
Route Data
Distance: 3355nm
Sched. Duration: 8h 34m
Avg. Duration: 8h 85m (+51m)
Times Flown: 5
Recm'd Route: BERGI UL602 MIMVA L602 NALAX L46 ODNEK N110 ERKIT L602 GOW GOMUP NATD HOIST N596A TAFFY ENE BAF HYPER7
Planned Altitude: 32,000ft
Origin Wx: EHAM 281255Z 18013KT 150V210 CAVOK 06/02 Q1012 NOSIG
Dest. Wx: KIAD 281252Z 20008KT 10SM BKN060 OVC090 M01/M09 A2994 RMK AO2 SLP142 T10061089
Notes: SEASONAL FLIGHT | PERISHABLE CARGO

Financial History
Total Freight: 490,200lbs
Average Load: 98,040lbs/flt
Fuel Used: 519,594lbs
Avg. Fuel Used: 103,919lbs/flt
Fuel Expense: $415,675
Avg. Fuel Expense: $83,135
Avg. Fuel Cost: $0.80/lbs
Total Gross Income: $2,690,694
Pilot Pay: $1,155
Total Expenses: $290,855
Total Revenue: $1,973,593
Average Revenue: $538,138.87